sensor_id;sensor_type;location;lat;lon;timestamp;temperature;humidity
18577;DHT22;9418;52.694;13.294;2023-09-08T00:00:39;15.50;99.90
18577;DHT22;9418;52.694;13.294;2023-09-08T00:03:05;15.50;99.90
18577;DHT22;9418;52.694;13.294;2023-09-08T00:05:32;15.50;99.90
18577;DHT22;9418;52.694;13.294;2023-09-08T00:07:58;15.40;99.90
18577;DHT22;9418;52.694;13.294;2023-09-08T00:10:25;15.40;99.90
18577;DHT22;9418;52.694;13.294;2023-09-08T00:12:53;15.40;99.20
18577;DHT22;9418;52.694;13.294;2023-09-08T00:15:19;15.40;98.40
18577;DHT22;9418;52.694;13.294;2023-09-08T00:17:46;15.40;97.70
18577;DHT22;9418;52.694;13.294;2023-09-08T00:20:13;15.40;99.90
18577;DHT22;9418;52.694;13.294;2023-09-08T00:22:40;15.40;98.40
18577;DHT22;9418;52.694;13.294;2023-09-08T00:25:07;15.40;97.80
18577;DHT22;9418;52.694;13.294;2023-09-08T00:27:33;15.30;97.40
18577;DHT22;9418;52.694;13.294;2023-09-08T00:30:02;15.40;97.30
18577;DHT22;9418;52.694;13.294;2023-09-08T00:32:29;15.30;98.30
18577;DHT22;9418;52.694;13.294;2023-09-08T00:34:55;15.30;97.30
18577;DHT22;9418;52.694;13.294;2023-09-08T00:37:22;15.30;97.60
18577;DHT22;9418;52.694;13.294;2023-09-08T00:39:49;15.30;98.50
18577;DHT22;9418;52.694;13.294;2023-09-08T00:42:15;15.20;95.10
18577;DHT22;9418;52.694;13.294;2023-09-08T00:44:42;15.20;94.90
18577;DHT22;9418;52.694;13.294;2023-09-08T00:47:10;15.20;96.90
18577;DHT22;9418;52.694;13.294;2023-09-08T00:49:36;15.20;98.40
18577;DHT22;9418;52.694;13.294;2023-09-08T00:52:03;15.20;97.80
18577;DHT22;9418;52.694;13.294;2023-09-08T00:54:30;15.20;94.20
18577;DHT22;9418;52.694;13.294;2023-09-08T00:56:57;15.20;95.20
18577;DHT22;9418;52.694;13.294;2023-09-08T00:59:24;15.10;93.70
18577;DHT22;9418;52.694;13.294;2023-09-08T01:01:51;15.10;89.60
18577;DHT22;9418;52.694;13.294;2023-09-08T01:04:20;15.10;88.40
18577;DHT22;9418;52.694;13.294;2023-09-08T01:06:47;15.00;86.40
18577;DHT22;9418;52.694;13.294;2023-09-08T01:09:13;15.00;85.70
18577;DHT22;9418;52.694;13.294;2023-09-08T01:11:41;15.00;85.90
18577;DHT22;9418;52.694;13.294;2023-09-08T01:14:08;14.90;86.60
18577;DHT22;9418;52.694;13.294;2023-09-08T01:16:34;14.90;84.50
18577;DHT22;9418;52.694;13.294;2023-09-08T01:19:03;14.90;82.30
18577;DHT22;9418;52.694;13.294;2023-09-08T01:21:52;14.90;79.40
18577;DHT22;9418;52.694;13.294;2023-09-08T01:24:38;14.80;76.90
18577;DHT22;9418;52.694;13.294;2023-09-08T01:27:18;14.80;75.10
18577;DHT22;9418;52.694;13.294;2023-09-08T01:29:45;14.70;72.90
18577;DHT22;9418;52.694;13.294;2023-09-08T01:32:13;14.80;73.00
18577;DHT22;9418;52.694;13.294;2023-09-08T01:34:40;14.70;74.10
18577;DHT22;9418;52.694;13.294;2023-09-08T01:37:07;14.70;73.40
18577;DHT22;9418;52.694;13.294;2023-09-08T01:39:33;14.70;73.70
18577;DHT22;9418;52.694;13.294;2023-09-08T01:42:01;14.60;76.60
18577;DHT22;9418;52.694;13.294;2023-09-08T01:44:29;14.70;71.40
18577;DHT22;9418;52.694;13.294;2023-09-08T01:46:55;14.60;68.00
18577;DHT22;9418;52.694;13.294;2023-09-08T01:49:23;14.60;66.20
18577;DHT22;9418;52.694;13.294;2023-09-08T01:51:50;14.60;67.60
18577;DHT22;9418;52.694;13.294;2023-09-08T01:54:16;14.60;65.20
18577;DHT22;9418;52.694;13.294;2023-09-08T01:56:43;14.60;64.80
18577;DHT22;9418;52.694;13.294;2023-09-08T01:59:09;14.60;63.60
18577;DHT22;9418;52.694;13.294;2023-09-08T02:01:37;14.60;62.40
18577;DHT22;9418;52.694;13.294;2023-09-08T02:04:04;14.50;62.40
18577;DHT22;9418;52.694;13.294;2023-09-08T02:06:31;14.50;60.50
18577;DHT22;9418;52.694;13.294;2023-09-08T02:08:57;14.60;59.10
18577;DHT22;9418;52.694;13.294;2023-09-08T02:11:24;14.50;61.20
18577;DHT22;9418;52.694;13.294;2023-09-08T02:13:52;14.50;57.70
18577;DHT22;9418;52.694;13.294;2023-09-08T02:16:18;14.50;57.70
18577;DHT22;9418;52.694;13.294;2023-09-08T02:18:46;14.50;57.80
18577;DHT22;9418;52.694;13.294;2023-09-08T02:21:13;14.50;55.80
18577;DHT22;9418;52.694;13.294;2023-09-08T02:23:39;14.50;54.50
18577;DHT22;9418;52.694;13.294;2023-09-08T02:26:06;14.50;53.60
18577;DHT22;9418;52.694;13.294;2023-09-08T02:28:32;14.50;51.70
18577;DHT22;9418;52.694;13.294;2023-09-08T02:30:59;14.50;53.20
18577;DHT22;9418;52.694;13.294;2023-09-08T02:33:25;14.50;54.50
18577;DHT22;9418;52.694;13.294;2023-09-08T02:35:53;14.50;53.80
18577;DHT22;9418;52.694;13.294;2023-09-08T02:38:20;14.50;52.20
18577;DHT22;9418;52.694;13.294;2023-09-08T02:40:46;14.50;51.20
18577;DHT22;9418;52.694;13.294;2023-09-08T02:43:13;14.50;52.70
18577;DHT22;9418;52.694;13.294;2023-09-08T02:45:39;14.50;52.80
18577;DHT22;9418;52.694;13.294;2023-09-08T02:48:06;14.50;51.40
18577;DHT22;9418;52.694;13.294;2023-09-08T02:50:33;14.60;52.70
18577;DHT22;9418;52.694;13.294;2023-09-08T02:53:00;14.60;53.70
18577;DHT22;9418;52.694;13.294;2023-09-08T02:55:27;14.50;52.50
18577;DHT22;9418;52.694;13.294;2023-09-08T02:57:55;14.50;55.20
18577;DHT22;9418;52.694;13.294;2023-09-08T03:00:22;14.50;55.50
18577;DHT22;9418;52.694;13.294;2023-09-08T03:02:48;14.50;54.90
18577;DHT22;9418;52.694;13.294;2023-09-08T03:05:15;14.40;56.80
18577;DHT22;9418;52.694;13.294;2023-09-08T03:07:41;14.40;58.20
18577;DHT22;9418;52.694;13.294;2023-09-08T03:10:10;14.40;55.40
18577;DHT22;9418;52.694;13.294;2023-09-08T03:12:37;14.30;56.80
18577;DHT22;9418;52.694;13.294;2023-09-08T03:15:04;14.30;56.90
18577;DHT22;9418;52.694;13.294;2023-09-08T03:17:31;14.30;54.70
18577;DHT22;9418;52.694;13.294;2023-09-08T03:19:57;14.30;53.80
18577;DHT22;9418;52.694;13.294;2023-09-08T03:22:24;14.30;54.20
18577;DHT22;9418;52.694;13.294;2023-09-08T03:24:50;14.20;54.80
18577;DHT22;9418;52.694;13.294;2023-09-08T03:27:19;14.20;54.00
18577;DHT22;9418;52.694;13.294;2023-09-08T03:29:45;14.20;50.70
18577;DHT22;9418;52.694;13.294;2023-09-08T03:32:12;14.20;50.50
18577;DHT22;9418;52.694;13.294;2023-09-08T03:34:38;14.20;51.80
18577;DHT22;9418;52.694;13.294;2023-09-08T03:37:05;14.20;52.30
18577;DHT22;9418;52.694;13.294;2023-09-08T03:39:32;14.20;51.10
18577;DHT22;9418;52.694;13.294;2023-09-08T03:41:58;14.20;51.30
18577;DHT22;9418;52.694;13.294;2023-09-08T03:44:26;14.10;49.90
18577;DHT22;9418;52.694;13.294;2023-09-08T03:46:53;14.20;50.00
18577;DHT22;9418;52.694;13.294;2023-09-08T03:49:20;14.10;48.50
18577;DHT22;9418;52.694;13.294;2023-09-08T03:51:46;14.10;47.70
18577;DHT22;9418;52.694;13.294;2023-09-08T03:54:13;14.10;45.10
18577;DHT22;9418;52.694;13.294;2023-09-08T03:56:39;14.10;47.00
18577;DHT22;9418;52.694;13.294;2023-09-08T03:59:06;14.00;45.80
18577;DHT22;9418;52.694;13.294;2023-09-08T04:01:34;14.00;45.80
18577;DHT22;9418;52.694;13.294;2023-09-08T04:04:00;14.00;46.10
18577;DHT22;9418;52.694;13.294;2023-09-08T04:06:27;14.00;44.80
18577;DHT22;9418;52.694;13.294;2023-09-08T04:08:53;13.90;44.40
18577;DHT22;9418;52.694;13.294;2023-09-08T04:11:20;13.90;43.30
18577;DHT22;9418;52.694;13.294;2023-09-08T04:13:47;13.90;43.60
18577;DHT22;9418;52.694;13.294;2023-09-08T04:16:13;13.90;43.30
18577;DHT22;9418;52.694;13.294;2023-09-08T04:18:41;13.90;42.10
18577;DHT22;9418;52.694;13.294;2023-09-08T04:21:07;13.90;38.90
18577;DHT22;9418;52.694;13.294;2023-09-08T04:23:34;13.90;40.20
18577;DHT22;9418;52.694;13.294;2023-09-08T04:26:01;13.90;39.10
18577;DHT22;9418;52.694;13.294;2023-09-08T04:28:28;13.90;37.80
18577;DHT22;9418;52.694;13.294;2023-09-08T04:30:54;13.90;37.70
18577;DHT22;9418;52.694;13.294;2023-09-08T04:33:21;14.00;36.60
18577;DHT22;9418;52.694;13.294;2023-09-08T04:35:48;14.00;38.60
18577;DHT22;9418;52.694;13.294;2023-09-08T04:38:15;13.90;40.30
18577;DHT22;9418;52.694;13.294;2023-09-08T04:40:41;14.00;41.10
18577;DHT22;9418;52.694;13.294;2023-09-08T04:43:08;14.00;38.10
18577;DHT22;9418;52.694;13.294;2023-09-08T04:45:35;14.00;38.70
18577;DHT22;9418;52.694;13.294;2023-09-08T04:48:01;14.00;39.70
18577;DHT22;9418;52.694;13.294;2023-09-08T04:50:28;14.00;40.80
18577;DHT22;9418;52.694;13.294;2023-09-08T04:52:56;14.10;38.80
18577;DHT22;9418;52.694;13.294;2023-09-08T04:55:23;14.00;40.10
18577;DHT22;9418;52.694;13.294;2023-09-08T04:57:49;14.10;40.50
18577;DHT22;9418;52.694;13.294;2023-09-08T05:00:17;14.10;39.70
18577;DHT22;9418;52.694;13.294;2023-09-08T05:02:43;14.10;40.70
18577;DHT22;9418;52.694;13.294;2023-09-08T05:05:10;14.10;39.00
18577;DHT22;9418;52.694;13.294;2023-09-08T05:07:36;14.20;38.30
18577;DHT22;9418;52.694;13.294;2023-09-08T05:10:05;14.10;39.30
18577;DHT22;9418;52.694;13.294;2023-09-08T05:12:32;14.20;35.80
18577;DHT22;9418;52.694;13.294;2023-09-08T05:14:58;14.20;36.60
18577;DHT22;9418;52.694;13.294;2023-09-08T05:17:31;14.30;35.30
18577;DHT22;9418;52.694;13.294;2023-09-08T05:19:58;14.40;34.90
18577;DHT22;9418;52.694;13.294;2023-09-08T05:22:24;14.40;35.30
18577;DHT22;9418;52.694;13.294;2023-09-08T05:24:51;14.50;35.00
18577;DHT22;9418;52.694;13.294;2023-09-08T05:27:19;14.60;36.00
18577;DHT22;9418;52.694;13.294;2023-09-08T05:29:45;14.60;38.70
18577;DHT22;9418;52.694;13.294;2023-09-08T05:32:12;14.60;37.30
18577;DHT22;9418;52.694;13.294;2023-09-08T05:34:39;14.70;37.50
18577;DHT22;9418;52.694;13.294;2023-09-08T05:37:05;14.80;38.70
18577;DHT22;9418;52.694;13.294;2023-09-08T05:39:32;14.80;37.10
18577;DHT22;9418;52.694;13.294;2023-09-08T05:41:58;14.80;36.50
18577;DHT22;9418;52.694;13.294;2023-09-08T05:44:26;14.90;33.30
18577;DHT22;9418;52.694;13.294;2023-09-08T05:46:53;15.00;33.70
18577;DHT22;9418;52.694;13.294;2023-09-08T05:49:19;15.10;33.50
18577;DHT22;9418;52.694;13.294;2023-09-08T05:51:46;15.20;33.90
18577;DHT22;9418;52.694;13.294;2023-09-08T05:54:13;15.50;34.80
18577;DHT22;9418;52.694;13.294;2023-09-08T05:56:39;15.60;37.10
18577;DHT22;9418;52.694;13.294;2023-09-08T05:59:06;15.80;45.00
18577;DHT22;9418;52.694;13.294;2023-09-08T06:01:34;15.90;49.00
18577;DHT22;9418;52.694;13.294;2023-09-08T06:04:01;16.10;52.50
18577;DHT22;9418;52.694;13.294;2023-09-08T06:06:28;16.20;57.20
18577;DHT22;9418;52.694;13.294;2023-09-08T06:08:56;16.40;64.80
18577;DHT22;9418;52.694;13.294;2023-09-08T06:11:23;16.50;73.50
18577;DHT22;9418;52.694;13.294;2023-09-08T06:13:49;16.70;83.00
18577;DHT22;9418;52.694;13.294;2023-09-08T06:16:17;16.90;94.30
18577;DHT22;9418;52.694;13.294;2023-09-08T06:18:45;17.00;95.20
18577;DHT22;9418;52.694;13.294;2023-09-08T06:21:12;17.20;99.90
18577;DHT22;9418;52.694;13.294;2023-09-08T06:23:38;17.20;99.90
18577;DHT22;9418;52.694;13.294;2023-09-08T06:26:05;17.30;99.90
18577;DHT22;9418;52.694;13.294;2023-09-08T06:28:31;17.30;99.90
18577;DHT22;9418;52.694;13.294;2023-09-08T06:30:58;17.40;99.90
18577;DHT22;9418;52.694;13.294;2023-09-08T06:33:25;17.60;99.90
18577;DHT22;9418;52.694;13.294;2023-09-08T06:35:53;17.70;99.90
18577;DHT22;9418;52.694;13.294;2023-09-08T06:38:20;17.80;99.90
18577;DHT22;9418;52.694;13.294;2023-09-08T06:40:46;17.90;99.90
18577;DHT22;9418;52.694;13.294;2023-09-08T06:43:14;17.90;99.90
18577;DHT22;9418;52.694;13.294;2023-09-08T06:45:41;18.00;99.90
18577;DHT22;9418;52.694;13.294;2023-09-08T06:48:07;18.10;99.90
18577;DHT22;9418;52.694;13.294;2023-09-08T06:50:34;18.10;99.90
18577;DHT22;9418;52.694;13.294;2023-09-08T06:53:02;18.20;99.90
18577;DHT22;9418;52.694;13.294;2023-09-08T06:55:29;18.20;99.90
18577;DHT22;9418;52.694;13.294;2023-09-08T06:57:56;18.30;99.90
18577;DHT22;9418;52.694;13.294;2023-09-08T07:00:23;18.40;99.90
18577;DHT22;9418;52.694;13.294;2023-09-08T07:02:50;18.50;99.90
18577;DHT22;9418;52.694;13.294;2023-09-08T07:05:17;18.70;99.90
18577;DHT22;9418;52.694;13.294;2023-09-08T07:07:43;18.80;99.90
18577;DHT22;9418;52.694;13.294;2023-09-08T07:10:12;18.80;99.90
18577;DHT22;9418;52.694;13.294;2023-09-08T07:12:39;18.90;99.90
18577;DHT22;9418;52.694;13.294;2023-09-08T07:15:06;19.00;99.90
18577;DHT22;9418;52.694;13.294;2023-09-08T07:17:33;19.00;99.90
18577;DHT22;9418;52.694;13.294;2023-09-08T07:20:00;19.10;99.90
18577;DHT22;9418;52.694;13.294;2023-09-08T07:22:27;19.20;99.90
18577;DHT22;9418;52.694;13.294;2023-09-08T07:24:53;19.30;99.90
18577;DHT22;9418;52.694;13.294;2023-09-08T07:27:21;19.40;99.90
18577;DHT22;9418;52.694;13.294;2023-09-08T07:29:48;19.60;99.90
18577;DHT22;9418;52.694;13.294;2023-09-08T07:32:15;19.60;99.90
18577;DHT22;9418;52.694;13.294;2023-09-08T07:34:41;19.80;99.90
18577;DHT22;9418;52.694;13.294;2023-09-08T07:37:08;19.90;99.90
18577;DHT22;9418;52.694;13.294;2023-09-08T07:39:35;20.00;99.90
18577;DHT22;9418;52.694;13.294;2023-09-08T07:42:01;20.10;99.90
18577;DHT22;9418;52.694;13.294;2023-09-08T07:44:29;20.30;99.90
18577;DHT22;9418;52.694;13.294;2023-09-08T07:46:56;20.40;73.70
18577;DHT22;9418;52.694;13.294;2023-09-08T07:49:23;20.50;36.10
18577;DHT22;9418;52.694;13.294;2023-09-08T07:51:50;20.60;35.80
18577;DHT22;9418;52.694;13.294;2023-09-08T07:54:16;20.70;32.20
18577;DHT22;9418;52.694;13.294;2023-09-08T07:56:43;20.80;46.80
18577;DHT22;9418;52.694;13.294;2023-09-08T07:59:09;20.90;53.40
18577;DHT22;9418;52.694;13.294;2023-09-08T08:01:37;21.00;48.50
18577;DHT22;9418;52.694;13.294;2023-09-08T08:04:04;21.10;58.00
18577;DHT22;9418;52.694;13.294;2023-09-08T08:06:31;21.20;77.40
18577;DHT22;9418;52.694;13.294;2023-09-08T08:08:57;21.40;76.20
18577;DHT22;9418;52.694;13.294;2023-09-08T08:11:24;21.80;79.30
18577;DHT22;9418;52.694;13.294;2023-09-08T08:13:51;22.30;94.40
18577;DHT22;9418;52.694;13.294;2023-09-08T08:16:18;22.50;99.10
18577;DHT22;9418;52.694;13.294;2023-09-08T08:18:48;22.40;99.90
18577;DHT22;9418;52.694;13.294;2023-09-08T08:21:14;22.50;98.00
18577;DHT22;9418;52.694;13.294;2023-09-08T08:23:41;22.50;98.20
18577;DHT22;9418;52.694;13.294;2023-09-08T08:26:07;22.50;99.10
18577;DHT22;9418;52.694;13.294;2023-09-08T08:28:34;22.50;96.90
18577;DHT22;9418;52.694;13.294;2023-09-08T08:31:01;22.60;99.50
18577;DHT22;9418;52.694;13.294;2023-09-08T08:33:27;22.70;99.10
18577;DHT22;9418;52.694;13.294;2023-09-08T08:35:56;22.70;99.90
18577;DHT22;9418;52.694;13.294;2023-09-08T08:38:22;22.80;99.90
18577;DHT22;9418;52.694;13.294;2023-09-08T08:40:49;22.90;99.90
18577;DHT22;9418;52.694;13.294;2023-09-08T08:43:15;23.00;99.90
18577;DHT22;9418;52.694;13.294;2023-09-08T08:45:42;23.20;99.90
18577;DHT22;9418;52.694;13.294;2023-09-08T08:48:10;23.30;99.90
18577;DHT22;9418;52.694;13.294;2023-09-08T08:50:41;23.50;99.90
18577;DHT22;9418;52.694;13.294;2023-09-08T08:53:10;23.60;99.90
18577;DHT22;9418;52.694;13.294;2023-09-08T08:55:38;23.80;99.90
18577;DHT22;9418;52.694;13.294;2023-09-08T08:58:05;24.00;99.90
18577;DHT22;9418;52.694;13.294;2023-09-08T09:00:34;24.20;99.90
18577;DHT22;9418;52.694;13.294;2023-09-08T09:03:04;24.50;99.90
18577;DHT22;9418;52.694;13.294;2023-09-08T09:05:31;24.70;99.90
18577;DHT22;9418;52.694;13.294;2023-09-08T09:07:58;24.90;99.90
18577;DHT22;9418;52.694;13.294;2023-09-08T09:10:30;24.80;99.90
18577;DHT22;9418;52.694;13.294;2023-09-08T09:12:57;24.90;99.90
18577;DHT22;9418;52.694;13.294;2023-09-08T09:15:28;25.10;99.90
18577;DHT22;9418;52.694;13.294;2023-09-08T09:18:02;25.20;99.90
18577;DHT22;9418;52.694;13.294;2023-09-08T09:20:29;25.20;99.90
18577;DHT22;9418;52.694;13.294;2023-09-08T09:22:56;25.20;99.90
18577;DHT22;9418;52.694;13.294;2023-09-08T09:25:23;25.40;99.90
18577;DHT22;9418;52.694;13.294;2023-09-08T09:27:52;25.30;99.90
18577;DHT22;9418;52.694;13.294;2023-09-08T09:30:19;25.20;99.90
18577;DHT22;9418;52.694;13.294;2023-09-08T09:32:46;25.40;99.90
18577;DHT22;9418;52.694;13.294;2023-09-08T09:35:14;25.50;99.90
18577;DHT22;9418;52.694;13.294;2023-09-08T09:37:41;25.50;99.90
18577;DHT22;9418;52.694;13.294;2023-09-08T09:40:08;25.70;99.90
18577;DHT22;9418;52.694;13.294;2023-09-08T09:42:38;25.80;99.90
18577;DHT22;9418;52.694;13.294;2023-09-08T09:45:07;25.80;99.90
18577;DHT22;9418;52.694;13.294;2023-09-08T09:47:34;25.90;99.90
18577;DHT22;9418;52.694;13.294;2023-09-08T09:50:01;26.10;99.90
18577;DHT22;9418;52.694;13.294;2023-09-08T09:52:28;26.20;99.90
18577;DHT22;9418;52.694;13.294;2023-09-08T09:54:57;26.30;99.90
18577;DHT22;9418;52.694;13.294;2023-09-08T09:57:24;26.50;99.90
18577;DHT22;9418;52.694;13.294;2023-09-08T09:59:51;26.60;99.90
18577;DHT22;9418;52.694;13.294;2023-09-08T10:02:21;26.90;99.90
18577;DHT22;9418;52.694;13.294;2023-09-08T10:04:49;27.10;99.90
18577;DHT22;9418;52.694;13.294;2023-09-08T10:07:16;27.10;99.90
18577;DHT22;9418;52.694;13.294;2023-09-08T10:09:43;27.40;99.90
18577;DHT22;9418;52.694;13.294;2023-09-08T10:12:13;28.20;99.90
18577;DHT22;9418;52.694;13.294;2023-09-08T10:14:42;29.00;99.90
18577;DHT22;9418;52.694;13.294;2023-09-08T10:17:12;29.70;99.90
18577;DHT22;9418;52.694;13.294;2023-09-08T10:19:44;30.90;99.90
18577;DHT22;9418;52.694;13.294;2023-09-08T10:22:20;31.20;99.90
18577;DHT22;9418;52.694;13.294;2023-09-08T10:24:49;31.20;99.90
18577;DHT22;9418;52.694;13.294;2023-09-08T10:27:16;29.40;99.90
18577;DHT22;9418;52.694;13.294;2023-09-08T10:29:45;30.20;99.90
18577;DHT22;9418;52.694;13.294;2023-09-08T10:32:13;30.20;99.90
18577;DHT22;9418;52.694;13.294;2023-09-08T10:34:41;29.80;99.90
18577;DHT22;9418;52.694;13.294;2023-09-08T10:37:19;30.60;99.90
18577;DHT22;9418;52.694;13.294;2023-09-08T10:39:46;31.10;99.90
18577;DHT22;9418;52.694;13.294;2023-09-08T10:42:20;31.00;99.90
18577;DHT22;9418;52.694;13.294;2023-09-08T10:44:56;30.00;99.90
18577;DHT22;9418;52.694;13.294;2023-09-08T10:47:24;31.20;99.90
18577;DHT22;9418;52.694;13.294;2023-09-08T10:49:52;31.00;99.90
18577;DHT22;9418;52.694;13.294;2023-09-08T10:52:23;30.60;99.90
18577;DHT22;9418;52.694;13.294;2023-09-08T10:54:51;30.40;99.90
18577;DHT22;9418;52.694;13.294;2023-09-08T10:57:20;30.20;99.90
18577;DHT22;9418;52.694;13.294;2023-09-08T10:59:51;30.60;99.90
18577;DHT22;9418;52.694;13.294;2023-09-08T11:02:34;30.30;99.90
18577;DHT22;9418;52.694;13.294;2023-09-08T11:05:03;30.10;99.90
18577;DHT22;9418;52.694;13.294;2023-09-08T11:07:32;30.30;99.90
18577;DHT22;9418;52.694;13.294;2023-09-08T11:09:59;29.80;99.90
18577;DHT22;9418;52.694;13.294;2023-09-08T11:12:27;29.60;99.90
18577;DHT22;9418;52.694;13.294;2023-09-08T11:14:53;29.80;99.90
18577;DHT22;9418;52.694;13.294;2023-09-08T11:17:20;29.80;99.90
18577;DHT22;9418;52.694;13.294;2023-09-08T11:19:48;29.30;99.90
18577;DHT22;9418;52.694;13.294;2023-09-08T11:22:16;29.10;99.90
18577;DHT22;9418;52.694;13.294;2023-09-08T11:24:43;29.00;99.90
18577;DHT22;9418;52.694;13.294;2023-09-08T11:27:11;28.90;99.90
18577;DHT22;9418;52.694;13.294;2023-09-08T11:29:38;28.90;99.90
18577;DHT22;9418;52.694;13.294;2023-09-08T11:32:08;28.90;99.90
18577;DHT22;9418;52.694;13.294;2023-09-08T11:34:35;28.70;99.90
18577;DHT22;9418;52.694;13.294;2023-09-08T11:37:07;28.50;99.90
18577;DHT22;9418;52.694;13.294;2023-09-08T11:39:37;28.40;99.90
18577;DHT22;9418;52.694;13.294;2023-09-08T11:42:05;28.40;99.90
18577;DHT22;9418;52.694;13.294;2023-09-08T11:44:32;28.40;99.90
18577;DHT22;9418;52.694;13.294;2023-09-08T11:46:59;28.50;99.90
18577;DHT22;9418;52.694;13.294;2023-09-08T11:49:25;28.60;99.90
18577;DHT22;9418;52.694;13.294;2023-09-08T11:51:52;29.20;99.90
18577;DHT22;9418;52.694;13.294;2023-09-08T11:54:18;29.30;99.90
18577;DHT22;9418;52.694;13.294;2023-09-08T11:56:46;29.10;99.90
18577;DHT22;9418;52.694;13.294;2023-09-08T11:59:13;29.10;99.90
18577;DHT22;9418;52.694;13.294;2023-09-08T12:01:40;29.10;99.90
18577;DHT22;9418;52.694;13.294;2023-09-08T12:04:06;29.10;99.90
18577;DHT22;9418;52.694;13.294;2023-09-08T12:06:42;29.00;99.90
18577;DHT22;9418;52.694;13.294;2023-09-08T12:09:09;29.10;99.90
18577;DHT22;9418;52.694;13.294;2023-09-08T12:11:36;29.30;99.90
18577;DHT22;9418;52.694;13.294;2023-09-08T12:14:09;29.30;99.90
18577;DHT22;9418;52.694;13.294;2023-09-08T12:16:36;29.40;99.90
18577;DHT22;9418;52.694;13.294;2023-09-08T12:19:02;29.20;99.90
18577;DHT22;9418;52.694;13.294;2023-09-08T12:21:29;29.20;99.90
18577;DHT22;9418;52.694;13.294;2023-09-08T12:23:57;29.30;99.90
18577;DHT22;9418;52.694;13.294;2023-09-08T12:26:24;29.50;99.90
18577;DHT22;9418;52.694;13.294;2023-09-08T12:28:51;30.50;99.90
18577;DHT22;9418;52.694;13.294;2023-09-08T12:31:19;31.10;99.90
18577;DHT22;9418;52.694;13.294;2023-09-08T12:33:46;31.20;99.90
18577;DHT22;9418;52.694;13.294;2023-09-08T12:36:14;31.80;99.90
18577;DHT22;9418;52.694;13.294;2023-09-08T12:38:40;31.80;99.90
18577;DHT22;9418;52.694;13.294;2023-09-08T12:41:07;31.30;99.90
18577;DHT22;9418;52.694;13.294;2023-09-08T12:43:34;30.80;99.90
18577;DHT22;9418;52.694;13.294;2023-09-08T12:46:01;31.50;99.90
18577;DHT22;9418;52.694;13.294;2023-09-08T12:48:28;31.50;99.90
18577;DHT22;9418;52.694;13.294;2023-09-08T12:50:55;31.70;99.90
18577;DHT22;9418;52.694;13.294;2023-09-08T12:53:22;30.90;99.90
18577;DHT22;9418;52.694;13.294;2023-09-08T12:55:49;30.60;99.90
18577;DHT22;9418;52.694;13.294;2023-09-08T12:58:16;29.70;99.90
18577;DHT22;9418;52.694;13.294;2023-09-08T13:00:43;30.00;99.90
18577;DHT22;9418;52.694;13.294;2023-09-08T13:03:10;30.20;99.90
18577;DHT22;9418;52.694;13.294;2023-09-08T13:05:37;29.60;99.90
18577;DHT22;9418;52.694;13.294;2023-09-08T13:08:05;29.20;99.90
18577;DHT22;9418;52.694;13.294;2023-09-08T13:10:31;29.40;99.90
18577;DHT22;9418;52.694;13.294;2023-09-08T13:12:58;29.50;99.90
18577;DHT22;9418;52.694;13.294;2023-09-08T13:15:25;29.70;99.90
18577;DHT22;9418;52.694;13.294;2023-09-08T13:17:51;30.00;99.90
18577;DHT22;9418;52.694;13.294;2023-09-08T13:20:18;29.80;99.90
18577;DHT22;9418;52.694;13.294;2023-09-08T13:22:46;30.00;99.90
18577;DHT22;9418;52.694;13.294;2023-09-08T13:25:13;29.60;99.90
18577;DHT22;9418;52.694;13.294;2023-09-08T13:27:41;29.50;99.90
18577;DHT22;9418;52.694;13.294;2023-09-08T13:30:08;29.60;99.90
18577;DHT22;9418;52.694;13.294;2023-09-08T13:32:35;29.50;99.90
18577;DHT22;9418;52.694;13.294;2023-09-08T13:35:02;30.10;99.90
18577;DHT22;9418;52.694;13.294;2023-09-08T13:37:29;30.40;99.90
18577;DHT22;9418;52.694;13.294;2023-09-08T13:39:57;30.20;99.90
18577;DHT22;9418;52.694;13.294;2023-09-08T13:42:24;30.50;99.90
18577;DHT22;9418;52.694;13.294;2023-09-08T13:44:50;30.40;99.90
18577;DHT22;9418;52.694;13.294;2023-09-08T13:47:17;30.40;99.90
18577;DHT22;9418;52.694;13.294;2023-09-08T13:49:43;30.20;99.90
18577;DHT22;9418;52.694;13.294;2023-09-08T13:52:10;30.00;99.90
18577;DHT22;9418;52.694;13.294;2023-09-08T13:54:36;29.80;99.90
18577;DHT22;9418;52.694;13.294;2023-09-08T13:57:05;29.60;99.90
18577;DHT22;9418;52.694;13.294;2023-09-08T13:59:32;30.00;99.90
18577;DHT22;9418;52.694;13.294;2023-09-08T14:01:58;30.20;99.90
18577;DHT22;9418;52.694;13.294;2023-09-08T14:04:26;30.10;99.90
18577;DHT22;9418;52.694;13.294;2023-09-08T14:06:53;29.70;99.90
18577;DHT22;9418;52.694;13.294;2023-09-08T14:09:20;30.00;99.90
18577;DHT22;9418;52.694;13.294;2023-09-08T14:11:46;30.40;99.90
18577;DHT22;9418;52.694;13.294;2023-09-08T14:14:14;30.70;99.90
18577;DHT22;9418;52.694;13.294;2023-09-08T14:16:40;30.80;99.90
18577;DHT22;9418;52.694;13.294;2023-09-08T14:19:07;30.40;99.90
18577;DHT22;9418;52.694;13.294;2023-09-08T14:21:33;31.30;99.90
18577;DHT22;9418;52.694;13.294;2023-09-08T14:24:03;31.50;99.90
18577;DHT22;9418;52.694;13.294;2023-09-08T14:26:29;32.00;99.90
18577;DHT22;9418;52.694;13.294;2023-09-08T14:28:56;32.10;99.90
18577;DHT22;9418;52.694;13.294;2023-09-08T14:31:23;31.80;99.90
18577;DHT22;9418;52.694;13.294;2023-09-08T14:33:50;30.90;99.90
18577;DHT22;9418;52.694;13.294;2023-09-08T14:36:17;31.10;99.90
18577;DHT22;9418;52.694;13.294;2023-09-08T14:38:44;30.60;99.90
18577;DHT22;9418;52.694;13.294;2023-09-08T14:41:11;30.20;99.90
18577;DHT22;9418;52.694;13.294;2023-09-08T14:43:37;30.30;99.90
18577;DHT22;9418;52.694;13.294;2023-09-08T14:46:04;29.80;99.90
18577;DHT22;9418;52.694;13.294;2023-09-08T14:48:32;29.70;99.90
18577;DHT22;9418;52.694;13.294;2023-09-08T14:51:00;29.80;99.90
18577;DHT22;9418;52.694;13.294;2023-09-08T14:53:27;29.60;99.90
18577;DHT22;9418;52.694;13.294;2023-09-08T14:55:54;29.70;99.90
18577;DHT22;9418;52.694;13.294;2023-09-08T14:58:23;30.10;99.90
18577;DHT22;9418;52.694;13.294;2023-09-08T15:00:51;29.50;99.90
18577;DHT22;9418;52.694;13.294;2023-09-08T15:03:17;29.40;99.90
18577;DHT22;9418;52.694;13.294;2023-09-08T15:05:45;29.40;99.90
18577;DHT22;9418;52.694;13.294;2023-09-08T15:08:12;29.30;99.90
18577;DHT22;9418;52.694;13.294;2023-09-08T15:10:38;29.20;99.90
18577;DHT22;9418;52.694;13.294;2023-09-08T15:13:05;29.50;99.90
18577;DHT22;9418;52.694;13.294;2023-09-08T15:15:32;29.60;99.90
18577;DHT22;9418;52.694;13.294;2023-09-08T15:17:58;29.10;99.90
18577;DHT22;9418;52.694;13.294;2023-09-08T15:20:25;29.30;99.90
18577;DHT22;9418;52.694;13.294;2023-09-08T15:22:53;29.20;99.90
18577;DHT22;9418;52.694;13.294;2023-09-08T15:25:20;29.10;99.90
18577;DHT22;9418;52.694;13.294;2023-09-08T15:27:46;29.20;99.90
18577;DHT22;9418;52.694;13.294;2023-09-08T15:30:14;29.10;99.90